Terminal Aerodrome Forecast
Issued by NWS Cleveland, OH

Home | Current Version | Previous Version | Graphics & Text | Print | Product List | Glossary On
Versions: 1 2 3 4 5 6 7 8 9 10 11 12 13 14 15 16 17 18 19 20 21 22 23
286
FTUS41 KCLE 281323 AAB
TAFCAK
TAF AMD
KCAK 281323Z 2813/2912 06010KT P6SM -SHRA SCT025 OVC035
      TEMPO 2813/2815 5SM -RA SCT015 OVC025
     FM281500 07010KT P6SM OVC018
     FM281800 05008KT P6SM OVC008
     FM290300 03006KT 4SM BR VCSH OVC006=

USA.gov is the U.S. government's official web portal to all federal, state and local government web resources and services.